Aeroporto :
LOGIN :

Iscrizione | Disclaimer

   EN    FR    IT 

 










Sommario :    VFR   VFR Marginale   IFR   IFR Intensivo   IFR Molto Intensivo
Visibilità : 
Base nubi : 
>= 8 km
>= 3000ft
5 / 8 km
1000 / 3000 ft
1500m / 5 km
500 / 1000 ft
800 / 1500m
200 / 500 ft
< 800m
< 200 ft
Simboli :   Temporali  Nebbia  Neve Forte  Precipitazioni Forti  Vento > 20 kt
SIGMETs :   Varie  Temporali  Ghiacco  Turbolenza  Onda orograficha  Ceneri Vulcaniche






- Altitudine del aeroporto : 17 ft
- Codice IATA : GRQ


EHGG - Groningen Eelde

ULTIMO METAR :
  • 301725Z AUTO 35007KT 310V040 9999 FEW023 SCT036 BKN049 07/02 Q1026 NOSIG

METARs OBSOLETI :
  • 301655Z AUTO 36010KT 290V050 9999 BKN045 07/02 Q1026 NOSIG
  • 301625Z AUTO 33011KT 280V030 9999 BKN022 BKN027 BKN030 08/02 Q1026 NOSIG
  • 301555Z AUTO 33011KT 270V030 9999 SCT021 BKN025 BKN029 08/03 Q1026 NOSIG

TAF COR TAF EHGG
Valido dal 30 a 12 ore il 31 a 18 ore UTC


301253Z 3012/3118 33012KT 9999 SCT030
PROB30
TEMPO 3012/3016 34012G22KT 6000 -SHRA -SHRAGS SCT018CB BKN020
BECMG 3013/3016 01008KT



MetMap, La meteo Aeronautica in un colpo d'occhio ! - Copyright ORBIFLY Dicembre 2007 - Disclaimer

ORBIFLY MET'MAP TEAM :

Programmazione e sviluppo : Alexandra Zaïnal
Concezione : Baudouin d'Aumeries
Aiuto per la programmazione : Marc-Olivier Méhu
Supporto tecnico e logistico : Manuel Goepfert
Aiuto per la traduzione : Arnaldo La Scala

Contatto : metmap@orbifly.com




FONTI E CREDITI :

   NOAA